Date,TemperatureHighF,TemperatureAvgF,TemperatureLowF,DewpointHighF,DewpointAvgF,DewpointLowF,HumidityHigh,HumidityAvg,HumidityLow,PressureMaxIn,PressureMinIn,WindSpeedMaxMPH,WindSpeedAvgMPH,GustSpeedMaxMPH,PrecipitationSumIn
2013-1-1,51,34,18,21,11,2,74,45,19,30.34,30.24,23,6,23,0.00
2013-1-2,58,37,18,10,4,0,49,30,14,30.32,30.19,18,6,18,0.00
2013-1-3,60,35,16,14,4,-3,61,34,13,30.34,30.22,17,6,17,0.00
2013-1-4,60,34,14,10,0,-9,55,31,10,30.40,30.27,10,4,10,34.77
2013-1-5,60,37,17,10,0,-7,53,28,10,30.41,30.21,9,4,10,0.00
2013-1-6,52,43,31,37,30,5,75,62,29,30.21,30.06,33,12,33,0.00
2013-1-7,65,43,27,32,24,9,77,52,18,30.22,30.11,15,6,15,24.19
2013-1-8,69,45,26,28,22,16,67,46,24,30.30,30.17,12,4,13,0.00
2013-1-9,66,49,29,34,27,21,73,48,25,30.29,30.00,24,8,24,0.00
2013-1-10,51,40,32,38,24,13,74,54,37,30.11,29.96,44,23,44,35.53
2013-1-11,44,36,30,23,20,16,68,53,41,30.20,30.08,34,13,34,0.00
2013-1-12,52,37,21,19,12,4,69,41,19,30.22,30.12,11,6,11,1.12
2013-1-13,50,30,13,18,6,-6,74,43,16,30.25,30.08,27,6,27,11.67
2013-1-14,41,27,10,3,-10,-17,45,24,11,30.43,30.25,16,4,16,24.19
2013-1-15,51,33,14,6,-2,-14,43,26,12,30.56,30.41,17,5,19,0.00
2013-1-16,61,39,20,17,9,-43,51,33,20,30.52,30.37,14,4,14,0.37
2013-1-17,65,40,18,16,4,-8,64,30,11,30.44,30.30,17,5,17,0.00
2013-1-18,66,40,20,10,1,-7,48,25,10,30.38,30.25,16,5,16,0.00
2013-1-19,67,40,20,7,-2,-13,43,23,10,30.41,30.27,13,5,13,0.00
2013-1-20,67,40,18,8,-2,-11,44,23,10,30.36,30.22,11,5,13,0.00
2013-1-21,71,42,19,10,-2,-14,44,22,10,30.33,30.21,14,5,14,0.00
2013-1-22,68,42,22,3,-2,-9,40,21,10,30.31,30.19,14,5,14,0.00
2013-1-23,68,50,34,33,4,-1,53,20,11,30.26,30.15,11,4,11,0.00
2013-1-24,59,52,47,48,28,-14,75,52,10,30.30,30.17,11,4,11,0.09
2013-1-25,57,52,46,48,20,-10,75,41,10,30.29,30.10,9,3,9,0.07
2013-1-26,74,54,47,52,25,-10,74,46,10,30.10,29.97,33,12,33,0.06
2013-1-27,52,45,41,41,29,16,75,56,33,30.08,30.00,37,18,37,0.00
2013-1-28,51,42,37,27,24,19,63,50,37,30.23,30.06,43,13,43,0.00
2013-1-29,62,46,36,30,28,26,72,53,30,30.31,30.14,34,12,35,0.00
2013-1-30,71,47,29,35,27,16,78,52,23,30.43,30.30,8,4,8,0.00
2013-1-31,73,48,29,38,28,19,75,53,23,30.38,30.25,11,5,11,0.00
2013-2-1,71,49,30,34,29,22,77,53,25,30.32,30.23,10,4,10,0.00
2013-2-2,68,54,41,45,33,27,73,50,27,30.37,30.26,17,4,17,0.00
2013-2-3,74,57,39,44,33,5,75,46,15,30.28,30.11,21,6,21,0.00
2013-2-4,79,52,34,34,26,20,73,44,16,30.22,30.09,11,5,11,5.86
2013-2-5,75,52,32,44,28,11,73,46,15,30.13,29.99,41,13,41,0.00
2013-2-6,70,52,38,39,26,6,75,44,15,30.16,30.04,33,13,36,0.00
2013-2-7,64,45,27,37,22,4,65,44,19,30.17,29.99,33,12,35,2.86
2013-2-8,48,39,35,32,26,-1,76,61,23,29.99,29.88,27,17,27,0.01
2013-2-9,53,41,32,29,24,13,73,53,25,30.12,29.94,37,17,37,0.00
2013-2-10,59,40,21,29,18,11,71,48,21,30.12,30.01,23,6,23,0.00
2013-2-11,60,38,22,29,10,-8,74,41,10,30.30,30.11,18,6,18,0.00
2013-2-12,64,41,19,17,6,-3,61,32,11,30.41,30.29,11,4,11,0.00
2013-2-13,70,46,24,26,13,6,63,35,12,30.38,30.22,11,4,11,33.26
2013-2-14,71,47,26,23,17,11,64,37,15,30.33,30.21,101,6,101,0.00
2013-2-15,71,50,29,22,14,5,63,30,13,30.39,30.31,30,7,30,0.00
2013-2-16,75,49,30,21,10,4,46,27,10,30.38,30.09,15,5,15,0.00
2013-2-17,70,52,30,35,22,9,64,36,14,30.09,29.97,33,13,33,0.00
2013-2-18,67,48,29,36,25,15,73,47,18,30.10,29.96,28,10,28,0.00
2013-2-19,52,43,35,36,33,18,74,67,49,29.98,29.72,41,20,41,0.02
2013-2-20,51,40,32,27,23,12,74,52,32,30.03,29.71,43,21,43,0.00
2013-2-21,58,45,36,29,23,9,72,46,20,30.17,30.01,31,11,31,0.00
2013-2-22,70,45,25,32,23,13,74,49,16,30.27,30.17,23,7,23,0.00
2013-2-23,59,50,39,31,27,12,63,43,27,30.20,29.93,58,21,58,0.06
2013-2-24,60,43,29,30,0,-12,66,22,10,30.29,30.16,30,9,30,0.00
2013-2-25,72,47,22,23,8,-6,41,25,10,30.31,30.09,36,10,40,0.00
2013-2-26,67,50,36,30,14,-4,58,30,11,30.27,30.11,25,8,26,5.95
2013-2-27,65,45,27,14,4,-4,49,24,10,30.41,30.27,18,6,18,12.00
2013-2-28,71,49,25,24,8,-4,55,26,10,30.48,30.38,14,5,14,0.00
2013-3-1,76,54,31,20,14,7,55,27,12,30.49,30.32,20,6,20,0.00
2013-3-2,80,57,34,24,18,12,50,27,13,30.38,30.17,21,6,21,0.00
2013-3-3,71,61,51,40,30,18,59,36,20,30.20,30.02,36,14,36,0.00
2013-3-4,79,58,46,41,36,24,74,49,19,30.15,30.05,27,9,27,0.00
2013-3-5,68,54,40,44,37,27,75,56,26,30.15,30.03,34,14,34,0.00
2013-3-6,58,49,42,41,38,32,74,67,52,30.14,30.03,37,19,37,0.00
2013-3-7,58,47,41,38,34,29,75,61,43,30.04,29.89,28,13,28,0.00
2013-3-8,51,43,29,38,25,-22,74,59,10,30.04,29.81,40,16,40,0.37
2013-3-9,62,47,38,36,32,26,74,58,31,30.30,30.03,30,14,30,0.00
2013-3-10,73,50,30,39,23,-40,75,45,11,30.41,30.26,16,6,16,0.07
2013-3-11,82,55,30,34,21,5,73,37,10,30.32,30.14,14,5,14,0.00
2013-3-12,86,59,34,32,22,13,61,32,11,30.26,30.14,20,5,20,48.57
2013-3-13,88,62,39,30,25,19,64,32,12,30.32,30.18,13,5,13,36.28
2013-3-14,95,66,42,39,30,24,57,32,14,30.28,30.13,20,6,20,0.00
2013-3-15,89,70,57,49,40,23,70,41,14,30.16,30.02,34,15,34,0.00
2013-3-16,81,67,56,48,36,22,67,38,16,30.06,29.97,61,20,61,0.05
2013-3-17,78,64,54,42,30,15,50,33,14,30.12,30.00,43,21,43,0.00
2013-3-18,80,64,48,37,24,3,53,28,10,30.14,30.03,41,15,41,0.34
2013-3-19,80,65,52,34,29,20,44,30,19,30.19,30.08,33,16,33,0.00
2013-3-20,76,63,54,41,36,22,60,42,18,30.16,30.04,36,22,42,0.00
2013-3-21,72,60,53,45,39,32,70,49,29,30.06,29.90,49,24,49,0.01
2013-3-22,73,57,46,38,30,-3,58,39,20,30.04,29.90,54,23,54,0.50
2013-3-23,80,58,42,31,11,-3,47,22,10,30.15,30.02,46,12,46,0.00
2013-3-24,82,61,41,26,12,1,34,20,10,30.16,30.00,28,8,28,0.00
2013-3-25,82,62,42,39,24,6,42,28,10,30.08,29.96,24,9,24,0.00
2013-3-26,78,63,46,35,26,-7,55,31,10,30.03,29.96,27,13,27,0.47
2013-3-27,74,62,53,45,39,33,71,48,27,30.10,29.97,37,18,37,0.00
2013-3-28,78,62,50,46,38,28,74,48,21,30.16,30.07,26,11,27,0.00
2013-3-29,81,64,44,42,35,28,69,40,19,30.20,30.11,24,8,24,0.00
2013-3-30,78,65,47,42,32,23,57,35,18,30.18,30.08,29,14,29,0.00
2013-3-31,67,58,50,49,42,26,74,59,33,30.16,30.09,31,17,31,0.00
2013-4-1,69,57,46,42,37,20,74,51,31,30.19,30.09,37,19,37,0.00
2013-4-2,79,62,50,45,39,31,73,49,22,30.17,30.07,33,13,33,0.00
2013-4-3,90,65,42,42,34,25,71,40,15,30.19,30.08,25,7,25,0.00
2013-4-4,77,66,54,48,41,34,70,45,29,30.15,30.06,36,14,36,0.00
2013-4-5,70,60,53,55,44,32,74,57,35,30.14,30.04,46,23,46,0.00
2013-4-6,71,62,52,44,38,32,60,45,32,30.16,30.03,47,24,47,0.00
2013-4-7,74,63,51,42,37,29,60,42,25,30.07,29.88,48,21,49,0.00
2013-4-8,61,52,46,43,33,-12,68,49,35,29.92,29.70,59,31,59,0.30
2013-4-9,72,57,44,33,20,8,54,29,13,30.15,29.91,35,11,35,0.00
2013-4-10,84,62,36,30,16,4,47,23,10,30.25,30.08,32,10,32,0.00
2013-4-11,84,68,60,45,38,26,55,36,22,30.09,29.85,39,18,40,0.00
2013-4-12,91,69,48,46,40,26,70,42,15,29.98,29.85,25,10,25,0.00
2013-4-13,82,70,59,50,37,18,68,37,13,29.96,29.81,44,20,45,0.00
2013-4-14,75,65,55,45,38,0,66,41,23,29.88,29.80,49,29,49,0.00
2013-4-15,68,55,47,46,39,17,75,57,22,29.90,29.83,46,31,47,0.00
2013-4-16,57,49,38,28,23,15,54,39,24,30.08,29.88,43,18,43,0.00
2013-4-17,69,54,37,22,16,5,47,27,14,30.26,30.07,23,9,23,0.00
2013-4-18,72,55,34,17,6,-5,46,20,10,30.37,30.26,23,6,23,0.00
2013-4-19,83,61,36,25,13,3,35,20,10,30.33,30.09,47,10,47,0.00
2013-4-20,91,73,57,39,26,8,37,23,10,30.14,30.03,34,13,37,0.00
2013-4-21,92,72,48,37,29,8,48,26,10,30.13,30.02,35,11,35,0.00
2013-4-22,89,75,57,34,27,19,31,21,12,30.08,29.91,36,16,36,0.00
2013-4-23,84,71,54,39,22,8,44,21,10,30.11,29.93,31,10,31,0.76
2013-4-24,84,64,48,48,30,9,73,35,11,30.02,29.89,37,13,37,12.85
2013-4-25,80,64,48,46,42,36,74,51,28,30.14,29.96,36,21,37,0.00
2013-4-26,93,72,49,47,37,14,66,37,10,30.24,30.13,52,10,52,0.00
2013-4-27,96,76,52,41,35,17,57,29,10,30.27,30.11,27,10,27,0.00
2013-4-28,98,80,67,45,36,24,42,26,11,30.13,29.96,33,14,35,0.00
2013-4-29,94,79,60,43,32,21,36,23,12,30.01,29.85,34,15,34,0.04
2013-4-30,90,76,65,48,39,21,54,30,13,29.89,29.81,39,23,39,0.00
2013-5-1,85,71,55,42,16,4,56,20,10,30.25,29.89,36,11,39,0.00
2013-5-2,82,65,45,14,-8,-12,23,11,10,30.40,30.23,30,10,30,0.00
2013-5-3,96,69,39,28,2,-12,27,13,10,30.25,29.94,25,7,25,0.00
2013-5-4,83,71,57,38,28,13,48,25,11,29.95,29.77,42,22,43,0.00
2013-5-5,68,56,51,48,43,34,74,63,47,30.01,29.86,37,22,37,0.00
2013-5-6,67,55,50,49,40,-10,75,61,10,30.07,29.96,32,16,32,0.06
2013-5-7,68,57,48,45,41,36,74,59,36,30.10,30.04,36,16,36,0.00
2013-5-8,75,62,50,48,44,38,74,56,33,30.15,30.08,34,15,34,0.85
2013-5-9,81,65,48,48,44,38,74,52,29,30.18,30.08,28,7,28,0.00
2013-5-10,94,74,53,51,44,34,70,41,19,30.22,30.11,28,9,28,0.00
2013-5-11,98,80,59,52,43,30,57,33,15,30.24,30.13,21,7,21,0.02
2013-5-12,101,85,67,55,45,-41,57,31,13,30.24,30.08,31,10,31,18.07
2013-5-13,96,79,-29,48,38,-32,81,27,15,30.16,29.91,70,9,70,60.61
2013-5-14,88,76,-19,44,28,-59,38,23,10,29.95,29.86,40,16,40,0.17
2013-5-15,89,78,67,45,36,18,44,28,11,29.95,29.85,47,23,47,0.00
2013-5-16,80,68,59,46,38,-37,56,37,21,29.90,29.82,80,28,80,0.00
2013-5-17,78,66,56,46,39,-24,69,42,23,29.91,29.85,45,26,45,0.00
2013-5-18,123,69,-16,36,25,-53,46,25,13,29.99,29.88,78,22,78,0.04
2013-5-19,89,72,-23,40,27,-61,42,23,10,29.99,29.88,46,20,46,24.38
2013-5-20,95,75,56,38,26,-65,43,23,10,30.05,29.90,23,8,23,0.19
2013-5-21,91,75,-9,47,31,-58,45,25,13,29.95,29.80,52,14,52,24.28
2013-5-22,77,62,-12,54,25,-49,93,29,11,29.82,29.73,45,29,131,0.00
2013-5-23,76,59,-5,26,14,-47,29,21,11,29.90,29.77,81,26,81,0.00
2013-5-24,80,64,-12,44,28,-51,54,30,10,29.92,29.86,34,14,34,24.38
2013-5-25,113,66,-5,47,35,-50,64,38,11,29.93,29.88,36,21,36,0.00
2013-5-26,78,66,-4,38,34,-28,52,34,21,29.98,29.90,78,26,78,0.00
2013-5-27,83,69,57,53,36,-7,59,34,15,29.95,29.83,51,24,72,0.07
2013-5-28,74,66,57,50,46,-21,69,51,36,29.86,29.74,51,27,51,0.01
2013-5-29,81,71,62,47,42,-25,57,39,21,29.88,29.71,55,27,55,0.02
2013-5-30,92,75,60,44,34,11,51,29,10,29.88,29.78,48,23,48,0.00
2013-5-31,100,79,-33,70,31,-62,76,22,11,29.98,29.83,109,15,109,0.27
2013-6-1,103,83,64,44,33,18,40,23,10,29.99,29.85,34,9,34,0.00
2013-6-2,97,81,66,50,40,24,40,27,17,29.87,29.75,34,16,34,0.00
2013-6-3,89,76,61,44,35,15,45,27,15,29.90,29.79,32,18,33,0.00
2013-6-4,93,77,60,51,40,-52,53,33,13,29.96,29.88,33,15,33,0.00
2013-6-5,100,81,61,53,44,30,57,33,14,29.99,29.89,32,12,32,0.07
2013-6-6,103,82,-16,54,46,-42,57,34,16,29.96,29.86,28,11,29,0.39
2013-6-7,111,87,66,56,47,30,52,31,11,29.92,29.79,30,10,30,0.00
2013-6-8,108,89,-18,52,43,-37,43,26,10,29.91,29.81,40,13,40,0.66
2013-6-9,94,81,68,46,30,12,39,21,10,29.94,29.87,33,15,33,0.00
2013-6-10,85,73,61,46,35,9,58,30,13,29.97,29.89,37,21,37,0.00
2013-6-11,99,82,61,43,36,20,43,25,13,30.00,29.92,32,14,32,0.00
2013-6-12,91,80,67,49,39,-59,48,28,13,30.01,29.94,36,17,36,0.38
2013-6-13,91,78,65,41,24,13,35,19,10,30.05,29.96,36,21,36,0.00
2013-6-14,95,77,55,44,26,-68,36,22,10,29.99,29.86,34,13,34,0.00
2013-6-15,88,74,55,49,34,17,47,29,11,29.99,29.90,34,16,34,0.38
2013-6-16,92,79,66,38,27,16,37,20,10,30.05,29.97,34,18,34,0.00
2013-6-17,93,80,66,38,31,19,33,22,11,30.04,29.95,38,19,38,0.00
2013-6-18,91,76,64,44,36,21,45,28,12,29.99,29.88,39,24,42,0.00
2013-6-19,85,69,54,43,30,13,56,30,10,29.98,29.87,47,28,50,0.00
2013-6-20,90,74,58,36,25,13,42,22,10,29.95,29.88,43,22,43,0.00
2013-6-21,90,75,-24,37,26,-61,40,22,10,29.96,29.88,42,20,42,0.00
2013-6-22,97,80,62,36,29,-5,36,21,12,29.96,29.86,34,15,34,0.57
2013-6-23,88,77,68,46,36,24,44,27,16,29.89,29.80,44,24,44,0.01
2013-6-24,86,70,62,56,51,42,68,52,40,29.96,29.81,35,22,38,0.00
2013-6-25,92,78,-27,56,52,-47,65,44,28,30.01,29.94,38,21,38,0.00
2013-6-26,98,84,70,59,56,-19,65,43,24,30.07,29.97,32,18,32,0.00
2013-6-27,102,88,73,61,56,28,64,40,14,30.11,30.04,29,14,29,0.00
2013-6-28,110,90,-17,60,55,-61,59,36,17,30.09,29.96,28,10,28,0.66
2013-6-29,110,91,-31,56,50,-67,49,30,11,30.00,29.88,24,11,24,0.00
2013-6-30,114,95,75,55,49,23,39,26,11,29.94,29.82,33,12,33,0.66
2013-7-1,104,90,79,54,50,-40,40,29,20,29.98,29.88,54,16,54,0.00
2013-7-2,105,90,72,54,48,-52,47,28,18,30.03,29.94,37,16,37,0.38
2013-7-3,111,92,-39,63,49,-61,35,26,19,29.98,29.83,53,13,53,0.30
2013-7-4,105,82,-34,55,44,-56,43,29,19,29.89,29.78,92,24,92,0.38
2013-7-5,99,87,78,56,53,-53,46,35,24,29.87,29.78,36,20,37,0.00
2013-7-6,99,85,71,53,49,-60,53,34,19,29.87,29.80,34,16,34,0.00
2013-7-7,104,87,65,49,42,31,48,26,13,29.95,29.83,33,11,33,0.00
2013-7-8,103,87,66,42,36,24,36,21,10,30.06,29.94,34,9,34,0.38
2013-7-9,106,90,73,42,34,24,27,18,12,30.11,30.01,27,11,27,0.00
2013-7-10,102,88,76,52,40,34,37,23,14,30.06,29.94,27,11,27,0.00
2013-7-11,89,80,73,55,49,36,53,37,21,30.03,29.93,28,16,28,0.00
2013-7-12,96,82,68,55,46,36,56,33,18,30.00,29.90,35,14,35,0.00
2013-7-13,101,86,68,44,41,-62,40,25,16,30.03,29.93,26,10,26,0.00
2013-7-14,122,88,76,38,34,24,26,19,14,30.03,29.92,27,12,27,0.01
2013-7-15,98,85,73,40,33,22,28,19,15,29.95,29.86,37,17,39,4.54
2013-7-16,94,79,60,84,21,10,75,17,10,30.04,29.93,33,15,33,0.00
2013-7-17,100,82,63,46,35,23,48,25,11,30.10,30.02,27,11,27,0.00
2013-7-18,108,84,60,45,36,25,41,24,10,30.09,29.93,27,9,27,0.00
2013-7-19,107,87,66,46,38,29,37,23,11,29.99,29.86,30,10,30,0.57
2013-7-20,101,86,71,59,45,36,47,29,15,29.94,29.85,37,13,37,0.00
2013-7-21,94,83,73,61,55,32,60,42,21,30.02,29.86,27,12,27,0.00
2013-7-22,95,81,-26,65,60,-40,75,53,37,30.05,29.95,32,10,32,0.00
2013-7-23,96,81,71,65,56,50,73,47,32,30.07,29.95,34,12,34,0.00
2013-7-24,101,88,69,58,53,47,56,35,21,30.02,29.92,32,14,32,0.00
2013-7-25,103,90,74,54,50,45,43,29,21,30.06,29.96,27,13,27,0.00
2013-7-26,93,87,79,60,55,49,47,37,31,30.14,30.04,23,9,23,0.00
2013-7-27,103,86,74,61,55,50,50,37,28,30.08,29.91,32,11,32,0.00
2013-7-28,96,83,73,54,48,35,47,34,19,29.95,29.87,36,18,36,0.00
2013-7-29,94,81,67,37,27,16,36,18,10,30.06,29.93,30,16,30,0.00
2013-7-30,96,82,69,49,40,24,44,27,15,30.13,30.04,28,12,30,0.00
2013-7-31,98,80,-10,47,36,-57,51,27,10,30.12,30.00,30,12,30,0.63
2013-8-1,94,80,68,46,36,-34,45,25,13,30.04,29.94,31,18,36,0.00
2013-8-2,96,79,66,47,35,18,45,26,10,30.00,29.94,32,15,32,0.00
2013-8-3,97,79,60,48,35,24,48,26,12,30.02,29.95,30,12,30,0.00
2013-8-4,96,78,55,39,28,4,44,22,10,30.04,29.96,32,12,32,0.00
2013-8-5,97,81,65,36,26,5,35,19,10,30.05,29.96,32,15,32,0.00
2013-8-6,94,80,65,46,27,2,45,19,10,30.06,29.99,37,17,37,0.00
2013-8-7,92,78,64,46,37,27,42,27,16,30.08,30.01,27,15,30,0.00
2013-8-8,89,76,64,50,41,18,60,36,11,30.04,29.95,31,18,31,0.00
2013-8-9,91,75,58,46,35,16,58,30,10,30.01,29.93,30,12,31,0.00
2013-8-10,92,78,63,47,41,34,50,32,17,30.05,29.99,27,12,27,0.00
2013-8-11,96,79,62,52,43,35,59,34,16,30.04,29.94,25,11,27,0.00
2013-8-12,99,81,59,47,40,33,49,29,15,30.03,29.94,27,10,27,0.00
2013-8-13,104,84,61,47,38,26,47,25,11,30.05,29.95,28,10,30,0.00
2013-8-14,104,86,65,43,35,21,39,22,10,30.03,29.93,23,9,23,1.28
2013-8-15,102,85,67,48,37,24,38,23,11,30.04,29.97,29,10,30,0.00
2013-8-16,100,86,72,53,43,30,38,26,19,30.05,29.97,28,13,28,1.28
2013-8-17,102,87,73,51,42,24,43,26,11,30.04,29.90,29,12,29,0.05
2013-8-18,103,85,66,60,48,38,45,32,18,30.04,29.88,24,8,24,0.00
2013-8-19,102,85,73,70,57,42,65,42,26,30.07,29.91,34,9,34,0.01
2013-8-20,99,84,68,54,44,32,53,30,14,30.00,29.92,30,10,30,0.00
2013-8-21,99,86,72,44,34,20,31,20,14,30.03,29.93,30,11,30,0.00
2013-8-22,99,86,68,44,31,13,30,18,11,30.04,29.92,28,11,28,0.04
2013-8-23,97,81,60,46,36,20,50,27,11,29.98,29.85,28,12,29,0.00
2013-8-24,96,79,60,45,34,18,50,27,10,29.98,29.85,25,10,25,0.04
2013-8-25,96,78,57,45,36,-55,54,28,11,30.04,29.93,27,10,29,0.31
2013-8-26,93,77,59,66,51,26,70,44,26,30.09,29.94,23,6,23,0.08
2013-8-27,96,80,66,65,60,54,75,54,36,30.01,29.88,21,6,21,0.09
2013-8-28,98,83,68,62,54,-50,63,41,30,30.03,29.92,31,10,31,0.00
2013-8-29,104,86,68,55,49,45,50,33,22,30.08,29.97,24,9,24,0.00
2013-8-30,102,85,72,66,59,52,61,46,28,30.12,29.99,32,12,32,1.55
2013-8-31,94,84,74,67,64,-44,71,55,40,30.07,29.95,35,17,35,0.00
2013-9-1,98,82,74,67,63,59,73,56,38,30.03,29.93,29,16,29,0.00
2013-9-2,97,85,73,66,57,-49,66,43,27,30.02,29.91,30,11,30,1.51
2013-9-3,97,84,70,61,56,-44,70,44,27,30.03,29.93,27,12,27,0.00
2013-9-4,101,85,69,57,53,-58,64,38,22,30.06,29.94,62,9,62,0.02
2013-9-5,100,85,-35,55,50,-57,57,34,20,30.04,29.94,40,10,40,0.38
2013-9-6,100,85,68,54,48,39,59,33,20,30.04,29.90,27,11,28,0.00
2013-9-7,104,84,63,46,40,-63,44,26,16,30.02,29.88,29,8,29,0.00
2013-9-8,103,84,62,52,39,-64,43,25,15,29.98,29.84,24,7,25,0.00
2013-9-9,100,84,71,57,47,32,50,32,21,29.96,29.79,29,8,35,0.04
2013-9-10,91,80,69,48,38,27,41,26,17,29.97,29.83,33,15,33,0.00
2013-9-11,94,79,66,50,41,25,41,30,20,30.02,29.94,33,16,34,0.00
2013-9-12,96,80,62,46,42,31,55,31,16,30.02,29.91,27,11,27,0.00
2013-9-13,102,81,61,49,44,36,44,31,19,29.95,29.78,23,8,23,0.00
2013-9-14,103,82,61,88,47,34,81,35,15,29.88,29.75,24,8,24,0.00
2013-9-15,100,83,64,53,45,14,60,33,17,29.91,29.83,23,8,26,0.18
2013-9-16,97,80,61,48,40,27,54,30,16,29.97,29.86,28,10,28,0.00
2013-9-17,90,76,60,49,35,12,53,30,10,29.91,29.79,34,16,36,0.00
2013-9-18,95,73,60,45,40,31,56,36,15,29.91,29.82,29,14,29,0.00
2013-9-19,98,75,51,43,32,22,54,29,12,29.97,29.84,17,6,19,1.61
2013-9-20,95,73,54,54,39,25,61,34,16,29.92,29.86,30,12,30,0.00
2013-9-21,79,68,57,57,47,36,73,51,34,29.92,29.82,36,19,36,0.04
2013-9-22,74,63,54,48,39,27,68,45,22,29.99,29.86,40,16,40,1.70
2013-9-23,92,68,46,45,36,27,68,39,15,30.07,29.96,15,5,16,0.00
2013-9-24,91,73,52,43,34,16,51,30,10,30.04,29.91,33,12,33,0.00
2013-9-25,74,63,55,46,40,21,64,46,29,29.91,29.77,40,23,40,1.72
2013-9-26,70,59,50,40,31,7,64,40,13,29.99,29.79,33,18,33,0.00
2013-9-27,78,61,41,34,23,11,57,29,13,30.14,29.98,17,6,17,0.00
2013-9-28,91,63,39,28,17,7,47,24,10,30.19,30.08,15,5,15,0.00
2013-9-29,92,70,48,28,22,11,45,22,10,30.15,30.04,34,12,34,0.00
2013-9-30,90,73,60,46,36,24,58,32,16,30.09,29.94,40,19,40,0.00
2013-10-1,90,72,57,52,45,34,62,42,22,30.00,29.92,29,18,29,0.00
2013-10-2,85,69,59,52,45,-34,74,47,14,29.99,29.90,40,19,41,0.00
2013-10-3,74,64,56,42,32,19,46,33,16,30.02,29.88,43,23,45,0.00
2013-10-4,75,60,45,28,11,3,49,20,10,30.26,30.02,32,10,32,0.00
2013-10-5,80,63,49,16,9,-1,25,16,10,30.36,30.23,33,10,33,0.00
2013-10-6,88,62,38,14,8,-2,34,16,10,30.28,30.12,17,6,17,0.00
2013-10-7,88,64,44,20,10,3,28,17,10,30.12,29.96,117,9,117,0.00
2013-10-8,77,63,-13,50,30,-44,74,36,17,29.99,29.81,34,18,35,0.00
2013-10-9,60,52,42,48,41,-4,76,67,48,29.84,29.70,40,20,40,0.00
2013-10-10,70,54,37,40,35,-22,77,53,29,30.05,29.83,30,12,30,0.00
2013-10-11,80,58,37,40,33,27,69,45,21,30.12,29.99,21,6,21,0.00
2013-10-12,80,60,41,43,32,25,61,40,20,30.06,29.91,29,9,29,0.00
2013-10-13,71,59,48,40,30,-37,64,39,14,30.10,29.95,34,14,58,0.00
2013-10-14,76,56,-10,37,25,-40,92,37,17,30.20,30.06,17,5,17,0.57
2013-10-15,77,58,9,26,20,-22,53,29,15,30.14,30.04,17,6,17,0.00
2013-10-16,78,56,38,27,14,-53,45,24,11,30.26,30.12,17,6,17,0.00
2013-10-17,87,59,0,29,20,-55,38,27,13,30.16,30.00,23,6,23,1.72
2013-10-18,84,60,21,29,17,0,47,25,11,30.18,30.06,16,5,17,1.72
2013-10-19,89,62,37,21,12,-48,33,19,10,30.20,30.06,12,5,12,24.19
2013-10-20,93,63,39,28,15,-57,31,20,10,30.10,29.96,18,5,18,0.00
2013-10-21,86,61,38,22,11,4,30,19,10,30.12,30.01,17,5,17,0.00
2013-10-22,86,62,41,20,12,3,32,18,10,30.16,30.00,16,5,16,0.00
2013-10-23,86,64,-16,21,16,-53,33,20,11,30.05,29.95,15,6,15,0.00
2013-10-24,92,66,43,31,20,-16,33,22,10,30.10,29.99,22,6,22,0.00
2013-10-25,90,66,44,30,23,14,42,25,11,30.20,30.09,13,4,13,0.76
2013-10-26,88,64,42,24,17,11,35,21,10,30.24,30.09,13,5,13,0.00
2013-10-27,83,63,44,46,26,-20,74,31,12,30.10,29.78,34,13,34,0.00
2013-10-28,58,51,-7,45,40,26,75,66,45,29.95,29.75,72,23,72,0.19
2013-10-29,49,49,49,41,41,41,74,74,74,30.00,29.94,17,17,17,0.19
2013-10-30,49,49,49,41,41,41,74,74,74,29.96,29.96,17,17,17,0.19
2013-11-5,65,48,37,12,3,-100,22,16,11,30.13,30.04,11,0,11,0.00
2013-11-6,71,50,28,14,7,1,34,19,10,30.17,29.75,17,5,17,0.00
2013-11-7,78,54,35,24,13,3,32,21,12,30.13,29.70,11,4,17,0.00
2013-11-8,82,55,33,25,16,7,41,23,11,29.96,29.81,14,4,15,0.00
2013-11-9,79,56,35,79,20,5,44,21,10,29.98,29.88,10,4,10,0.00
2013-11-10,77,50,32,21,5,-100,33,19,12,30.06,29.96,11,-61,11,0.00
2013-11-11,79,48,35,29,-5,-100,32,16,12,30.09,29.97,14,-177,14,0.00
2013-11-12,77,56,42,24,16,9,31,21,12,30.15,30.06,11,4,11,0.00
2013-11-13,82,58,36,33,20,8,38,25,10,30.08,29.93,16,4,16,0.00
2013-11-14,83,61,38,33,26,15,44,28,14,29.98,29.67,25,7,25,0.00
2013-11-15,66,58,46,42,37,31,62,48,32,29.68,29.55,36,20,36,0.00
2013-11-16,64,53,42,46,39,32,74,59,34,29.78,29.61,41,22,41,0.01
2013-11-17,71,52,40,39,33,24,78,50,28,29.98,29.78,22,6,22,0.00
2013-11-18,72,52,35,47,36,26,72,57,32,29.98,29.90,18,6,19,0.00
2013-11-19,67,56,47,44,40,36,73,56,33,29.92,29.77,38,17,38,0.00
2013-11-20,77,56,48,54,42,30,72,58,41,29.81,29.70,35,19,35,0.00
2013-11-21,64,52,37,58,37,-9,74,42,10,29.84,29.69,30,9,30,1.06
2013-11-22,49,44,39,40,33,11,72,66,28,29.92,29.82,37,13,37,0.04
2013-11-23,51,44,41,44,26,-11,72,33,10,30.01,29.90,11,4,11,0.05
2013-11-24,64,47,38,47,27,-12,76,39,10,30.10,30.00,10,4,10,0.00
2013-11-25,70,47,32,45,32,-16,74,38,10,30.17,30.08,10,3,10,0.00
2013-11-26,65,49,35,50,30,-6,86,49,15,30.04,30.02,14,4,14,0.01
2013-11-27,64,51,39,44,35,18,73,56,38,29.86,29.84,17,6,18,2.88
2013-11-28,61,48,33,43,34,17,76,58,40,29.97,29.85,13,4,13,0.00
2013-11-29,58,48,38,42,36,26,71,63,49,30.10,29.96,11,4,14,0.00
2013-11-30,67,49,35,45,33,20,75,56,31,30.12,30.03,12,5,12,0.00
2013-12-1,68,48,32,38,30,21,73,53,25,30.11,30.10,11,5,11,0.00
2013-12-2,74,51,33,39,28,22,72,45,17,30.10,29.78,22,7,22,0.06
2013-12-3,67,54,41,45,37,27,71,53,35,29.78,29.56,40,24,40,0.00
2013-12-4,54,40,29,27,18,11,64,43,19,29.69,29.65,37,9,39,0.00
2013-12-5,55,36,24,21,15,10,65,44,18,29.95,29.89,18,5,18,0.00
2013-12-6,51,35,20,31,15,5,61,45,25,29.95,29.88,29,9,29,0.00
2013-12-7,50,38,29,36,24,13,71,57,42,29.93,29.81,62,22,65,1.68
2013-12-8,50,34,21,23,15,11,72,49,25,30.10,29.92,26,5,27,0.00
2013-12-9,46,31,18,13,1,-9,71,34,10,30.29,30.25,24,8,24,0.00
2013-12-10,52,31,15,10,2,-8,49,31,11,0.00,40.00,10,4,10,0.00
2013-12-11,57,34,18,16,8,1,57,36,13,0.00,40.00,8,4,10,0.00
2013-12-12,62,39,23,21,12,7,56,36,15,0.00,40.00,8,4,10,0.38
2013-12-13,73,46,28,20,13,10,51,29,11,0.00,40.00,12,5,13,0.00
2013-12-14,62,44,25,25,16,11,58,36,18,30.29,30.17,20,6,20,0.00
2013-12-15,68,44,26,24,18,13,62,38,14,30.27,30.16,12,4,12,0.00
2013-12-16,72,47,32,27,20,15,56,36,16,30.17,30.10,9,3,9,0.00
2013-12-17,73,49,32,27,22,17,62,38,16,30.02,29.98,9,3,9,0.00
2013-12-18,66,52,42,43,29,-100,70,43,23,29.99,29.64,33,5,33,0.00
2013-12-19,55,44,32,45,31,-10,72,64,15,29.65,29.57,32,-90,35,0.00
2013-12-20,60,44,32,38,27,18,74,54,25,0.00,40.00,18,6,18,0.00
2013-12-21,74,50,33,37,29,-100,69,48,24,29.88,29.85,18,3,18,0.00
2013-12-22,63,50,35,37,27,-100,71,44,28,30.16,30.11,10,-4,10,0.00
2013-12-23,69,46,29,34,26,20,70,50,27,0.00,40.00,15,4,15,0.00
2013-12-24,71,47,28,35,27,19,74,49,24,29.91,29.91,17,4,17,0.00
2013-12-25,67,45,29,32,22,13,70,44,20,30.17,30.14,16,5,16,0.00
2013-12-26,67,43,24,23,12,3,57,32,11,30.15,30.14,11,4,11,0.00
2013-12-27,72,45,25,18,9,2,41,25,10,30.15,29.99,9,3,9,0.00
2013-12-28,79,50,32,78,21,2,46,23,10,29.99,29.99,20,5,21,0.00
2013-12-29,64,44,30,15,7,2,39,23,10,0.00,40.00,19,6,19,0.00
2013-12-30,70,41,24,70,7,0,39,24,10,0.00,40.00,9,4,9,0.00
2013-12-31,69,44,27,14,7,1,39,24,10,30.20,30.20,11,4,97,0.71
2014-1-1,70,46,26,18,10,3,40,25,11,30.08,30.05,11,4,11,0.00
2014-1-2,68,46,29,26,18,11,49,34,18,30.13,30.07,9,4,9,0.00